createdAt,value
2017-05-02T00:00:52.765Z,7.24
2017-05-02T00:03:21.158Z,5.36
2017-05-02T00:05:50.219Z,9.14
2017-05-02T00:08:19.339Z,6.00
2017-05-02T00:10:47.638Z,6.04
2017-05-02T00:13:16.698Z,8.26
2017-05-02T00:15:45.833Z,7.64
2017-05-02T00:18:14.902Z,8.64
2017-05-02T00:20:43.201Z,7.48
2017-05-02T00:23:12.300Z,6.34
2017-05-02T00:25:41.369Z,7.50
2017-05-02T00:28:09.732Z,9.60
2017-05-02T00:30:38.039Z,7.00
2017-05-02T00:33:07.102Z,9.22
2017-05-02T00:35:35.457Z,7.06
2017-05-02T00:38:03.816Z,7.10
2017-05-02T00:40:32.874Z,8.46
2017-05-02T00:43:01.185Z,10.02
2017-05-02T00:45:29.519Z,8.88
2017-05-02T00:47:57.878Z,10.48
2017-05-02T00:50:26.181Z,7.90
2017-05-02T00:52:54.517Z,8.68
2017-05-02T00:55:22.841Z,7.54
2017-05-02T00:57:51.941Z,12.88
2017-05-02T01:00:20.294Z,6.74
2017-05-02T01:02:48.597Z,10.12
2017-05-02T01:05:16.889Z,7.86
2017-05-02T01:07:45.986Z,11.10
2017-05-02T01:10:15.078Z,8.72
2017-05-02T01:12:43.430Z,10.10
2017-05-02T01:15:11.780Z,9.60
2017-05-02T01:17:40.103Z,10.28
2017-05-02T01:20:08.437Z,8.62
2017-05-02T01:22:36.729Z,9.70
2017-05-02T01:25:05.798Z,7.98
2017-05-02T01:27:34.910Z,12.30
2017-05-02T01:30:03.218Z,10.58
2017-05-02T01:32:31.510Z,9.30
2017-05-02T01:34:59.845Z,8.98
2017-05-02T01:37:28.905Z,8.64
2017-05-02T01:39:57.203Z,9.74
2017-05-02T01:42:25.547Z,9.42
2017-05-02T01:44:53.842Z,9.14
2017-05-02T01:47:22.153Z,14.02
2017-05-02T01:49:51.269Z,12.48
2017-05-02T01:52:19.560Z,12.40
2017-05-02T01:54:47.858Z,9.12
2017-05-02T01:57:16.194Z,11.44
2017-05-02T01:59:44.524Z,13.44
2017-05-02T02:02:12.877Z,12.84
2017-05-02T02:04:42.767Z,12.56
2017-05-02T02:07:11.068Z,11.58
2017-05-02T02:09:39.362Z,9.40
2017-05-02T02:12:08.464Z,14.56
2017-05-02T02:14:36.757Z,13.40
2017-05-02T02:17:05.070Z,14.22
2017-05-02T02:19:33.408Z,12.80
2017-05-02T02:22:02.487Z,12.68
2017-05-02T02:24:30.795Z,11.22
2017-05-02T02:26:59.148Z,10.90
2017-05-02T02:29:27.453Z,11.76
2017-05-02T02:31:55.752Z,13.04
2017-05-02T02:34:24.161Z,11.34
2017-05-02T02:36:53.231Z,12.92
2017-05-02T02:39:21.553Z,11.82
2017-05-02T02:41:49.924Z,11.14
2017-05-02T02:44:18.232Z,9.86
2017-05-02T02:46:46.550Z,11.18
2017-05-02T02:49:14.896Z,13.46
2017-05-02T02:51:43.198Z,10.76
2017-05-02T02:54:11.507Z,15.28
2017-05-02T02:56:40.873Z,10.86
2017-05-02T02:59:09.185Z,12.90
2017-05-02T03:01:38.264Z,12.18
2017-05-02T03:04:07.393Z,9.56
2017-05-02T03:06:36.463Z,11.16
2017-05-02T03:09:04.844Z,6.58
2017-05-02T03:11:33.211Z,12.18
2017-05-02T03:14:01.507Z,7.80
2017-05-02T03:16:29.822Z,10.36
2017-05-02T03:18:58.951Z,12.58
2017-05-02T03:21:27.269Z,10.62
2017-05-02T03:23:55.821Z,11.68
2017-05-02T03:26:24.201Z,10.40
2017-05-02T03:28:52.534Z,14.48
2017-05-02T03:31:20.841Z,9.88
2017-05-02T03:33:49.960Z,10.30
2017-05-02T03:36:18.262Z,8.78
2017-05-02T03:38:46.562Z,13.50
2017-05-02T03:41:14.889Z,11.22
2017-05-02T03:43:43.186Z,11.94
2017-05-02T03:46:11.537Z,8.14
2017-05-02T03:48:39.830Z,8.48
2017-05-02T03:51:08.132Z,8.22
2017-05-02T03:53:36.481Z,10.90
2017-05-02T03:56:04.780Z,9.06
2017-05-02T03:58:33.095Z,10.40
2017-05-02T04:01:02.210Z,9.20
2017-05-02T04:03:30.519Z,11.12
2017-05-02T04:05:58.823Z,10.70
2017-05-02T04:08:27.217Z,12.24
2017-05-02T04:10:55.551Z,13.18
2017-05-02T04:13:23.859Z,12.32
2017-05-02T04:15:52.987Z,10.82
2017-05-02T04:18:22.054Z,9.48
2017-05-02T04:20:50.357Z,12.24
2017-05-02T04:23:19.461Z,11.42
2017-05-02T04:25:48.535Z,15.50
2017-05-02T04:28:16.834Z,12.78
2017-05-02T04:30:45.968Z,11.36
2017-05-02T04:33:14.275Z,12.44
2017-05-02T04:35:42.618Z,12.06
2017-05-02T04:38:10.918Z,11.30
2017-05-02T04:40:39.565Z,13.36
2017-05-02T04:43:07.909Z,12.06
2017-05-02T04:45:36.209Z,13.62
2017-05-02T04:48:05.273Z,15.40
2017-05-02T04:50:33.623Z,11.48
2017-05-02T04:53:01.915Z,12.10
2017-05-02T04:55:30.218Z,10.64
2017-05-02T04:57:58.574Z,14.24
2017-05-02T05:00:26.877Z,13.56
2017-05-02T05:02:55.934Z,16.98
2017-05-02T05:05:24.286Z,17.30
2017-05-02T05:07:52.597Z,12.32
2017-05-02T05:10:20.901Z,10.48
2017-05-02T05:12:49.264Z,13.68
2017-05-02T05:15:17.561Z,11.56
2017-05-02T05:17:46.618Z,10.10
2017-05-02T05:20:14.965Z,13.30
2017-05-02T05:22:43.473Z,14.00
2017-05-02T05:25:12.534Z,13.98
2017-05-02T05:27:40.866Z,9.54
2017-05-02T05:30:09.166Z,10.56
2017-05-02T05:32:37.483Z,13.62
2017-05-02T05:35:05.834Z,9.86
2017-05-02T05:37:34.904Z,12.68
2017-05-02T05:40:03.196Z,9.70
2017-05-02T05:42:31.549Z,10.88
2017-05-02T05:44:59.842Z,7.32
2017-05-02T05:47:28.187Z,9.84
2017-05-02T05:49:58.052Z,8.54
2017-05-02T05:52:26.356Z,7.74
2017-05-02T05:54:55.412Z,7.32
2017-05-02T05:57:24.505Z,6.44
2017-05-02T05:59:52.795Z,8.74
2017-05-02T06:02:21.854Z,9.62
2017-05-02T06:04:50.181Z,8.02
2017-05-02T06:07:18.474Z,7.66
2017-05-02T06:09:46.773Z,7.46
2017-05-02T06:12:15.100Z,6.72
2017-05-02T06:14:44.280Z,4.96
2017-05-02T06:17:14.110Z,7.64
2017-05-02T06:19:43.184Z,6.60
2017-05-02T06:22:11.484Z,8.40
2017-05-02T06:24:40.568Z,8.10
2017-05-02T06:27:09.693Z,7.42
2017-05-02T06:29:38.756Z,8.96
2017-05-02T06:32:07.853Z,6.98
2017-05-02T06:34:36.916Z,8.10
2017-05-02T06:37:05.216Z,5.34
2017-05-02T06:39:33.539Z,7.34
2017-05-02T06:42:02.594Z,5.48
2017-05-02T06:44:30.930Z,4.20
2017-05-02T06:46:59.228Z,4.58
2017-05-02T06:49:28.307Z,5.70
2017-05-02T06:51:56.674Z,4.92
2017-05-02T06:54:26.167Z,4.82
2017-05-02T06:56:55.252Z,4.94
2017-05-02T06:59:23.601Z,6.58
2017-05-02T07:01:51.890Z,6.88
2017-05-02T07:04:20.178Z,4.74
2017-05-02T07:06:49.257Z,6.32
2017-05-02T07:09:17.598Z,6.54
2017-05-02T07:11:46.649Z,6.66
2017-05-02T07:14:14.953Z,6.86
2017-05-02T07:16:43.274Z,4.80
2017-05-02T07:19:11.566Z,6.44
2017-05-02T07:21:41.422Z,4.80
2017-05-02T07:24:09.730Z,5.40
2017-05-02T07:26:38.031Z,9.92
2017-05-02T07:29:06.362Z,5.70
2017-05-02T07:31:34.652Z,8.06
2017-05-02T07:34:02.935Z,5.96
2017-05-02T07:36:31.292Z,5.40
2017-05-02T07:38:59.587Z,6.10
2017-05-02T07:41:27.888Z,7.50
2017-05-02T07:43:56.214Z,7.84
2017-05-02T07:46:25.276Z,6.52
2017-05-02T07:48:54.518Z,6.30
2017-05-02T07:51:22.834Z,8.10
2017-05-02T07:53:51.936Z,7.16
2017-05-02T07:56:20.232Z,9.10
2017-05-02T07:58:49.323Z,8.78
2017-05-02T08:01:18.389Z,8.46
2017-05-02T08:03:46.682Z,8.14
2017-05-02T08:06:15.781Z,9.12
2017-05-02T08:08:44.095Z,8.20
2017-05-02T08:11:12.388Z,11.68
2017-05-02T08:13:40.721Z,10.94
2017-05-02T08:16:09.794Z,11.42
2017-05-02T08:18:39.641Z,7.72
2017-05-02T08:21:08.711Z,12.26
2017-05-02T08:23:36.998Z,13.26
2017-05-02T08:26:06.094Z,11.02
2017-05-02T08:28:34.389Z,8.96
2017-05-02T08:31:02.695Z,10.32
2017-05-02T08:33:31.035Z,10.20
2017-05-02T08:36:00.103Z,9.56
2017-05-02T08:38:28.415Z,9.10
2017-05-02T08:40:57.524Z,9.18
2017-05-02T08:43:26.591Z,11.56
2017-05-02T08:45:55.729Z,9.86
2017-05-02T08:48:24.029Z,8.70
2017-05-02T08:50:52.329Z,8.64
2017-05-02T08:53:22.239Z,11.08
2017-05-02T08:55:50.534Z,8.82
2017-05-02T08:58:19.601Z,12.48
2017-05-02T09:00:47.948Z,10.42
2017-05-02T09:03:16.260Z,11.68
2017-05-02T09:05:44.562Z,10.74
2017-05-02T09:08:12.914Z,8.66
2017-05-02T09:10:41.230Z,11.90
2017-05-02T09:13:10.301Z,10.00
2017-05-02T09:15:38.657Z,8.90
2017-05-02T09:18:06.961Z,9.98
2017-05-02T09:20:36.033Z,10.10
2017-05-02T09:23:04.375Z,8.08
2017-05-02T09:25:33.446Z,7.92
2017-05-02T09:28:02.556Z,8.94
2017-05-02T09:30:31.621Z,8.98
2017-05-02T09:32:59.922Z,9.24
2017-05-02T09:35:29.020Z,9.32
2017-05-02T09:37:57.333Z,9.80
2017-05-02T09:40:25.638Z,10.40
2017-05-02T09:42:53.982Z,11.22
2017-05-02T09:45:22.294Z,8.68
2017-05-02T09:47:50.606Z,8.54
2017-05-02T09:50:19.744Z,10.34
2017-05-02T09:52:48.289Z,8.86
2017-05-02T09:55:17.365Z,10.16
2017-05-02T09:57:45.713Z,7.90
2017-05-02T10:00:14.034Z,8.08
2017-05-02T10:02:43.105Z,10.40
2017-05-02T10:05:12.235Z,7.62
2017-05-02T10:07:40.549Z,10.10
2017-05-02T10:10:08.856Z,8.60
2017-05-02T10:12:37.213Z,8.78
2017-05-02T10:15:05.531Z,11.92
2017-05-02T10:17:34.698Z,10.24
2017-05-02T10:20:03.058Z,10.64
2017-05-02T10:22:31.383Z,10.70
2017-05-02T10:25:00.446Z,9.96
2017-05-02T10:27:28.821Z,10.66
2017-05-02T10:29:57.129Z,8.30
2017-05-02T10:32:26.213Z,10.56
2017-05-02T10:34:54.576Z,8.66
2017-05-02T10:37:22.878Z,10.60
2017-05-02T10:39:51.185Z,9.98
2017-05-02T10:42:19.542Z,12.00
2017-05-02T10:44:48.733Z,11.54
2017-05-02T10:47:17.048Z,10.36
2017-05-02T10:49:45.405Z,17.20
2017-05-02T10:52:14.475Z,10.62
2017-05-02T10:54:42.781Z,11.46
2017-05-02T10:57:11.906Z,13.38
2017-05-02T10:59:40.231Z,13.06
2017-05-02T11:02:09.331Z,13.18
2017-05-02T11:04:38.481Z,10.44
2017-05-02T11:07:06.789Z,11.00
2017-05-02T11:09:35.090Z,13.86
2017-05-02T11:12:03.435Z,10.82
2017-05-02T11:14:32.497Z,9.52
2017-05-02T11:17:00.820Z,11.78
2017-05-02T11:19:29.162Z,14.44
2017-05-02T11:21:57.532Z,12.22
2017-05-02T11:24:27.353Z,14.86
2017-05-02T11:26:55.715Z,13.06
2017-05-02T11:29:24.016Z,11.28
2017-05-02T11:31:52.320Z,14.36
2017-05-02T11:34:20.659Z,15.76
2017-05-02T11:36:49.211Z,17.90
2017-05-02T11:39:18.293Z,12.18
2017-05-02T11:41:46.647Z,17.54
2017-05-02T11:44:15.035Z,12.80
2017-05-02T11:46:43.342Z,13.42
2017-05-02T11:49:12.478Z,11.74
2017-05-02T11:51:40.776Z,12.54
2017-05-02T11:54:09.075Z,17.28
2017-05-02T11:56:37.435Z,13.86
2017-05-02T11:59:05.743Z,13.84
2017-05-02T12:01:34.886Z,13.96
2017-05-02T12:04:03.254Z,13.50
2017-05-02T12:06:31.556Z,14.30
2017-05-02T12:08:59.868Z,10.28
2017-05-02T12:11:28.984Z,12.78
2017-05-02T12:13:58.051Z,15.52
2017-05-02T12:16:26.362Z,13.16
2017-05-02T12:18:55.483Z,13.46
2017-05-02T12:21:23.790Z,14.26
2017-05-02T12:23:52.090Z,13.78
2017-05-02T12:26:20.437Z,13.52
2017-05-02T12:28:48.962Z,20.12
2017-05-02T12:31:17.313Z,15.82
2017-05-02T12:33:45.665Z,12.04
2017-05-02T12:36:13.981Z,13.44
2017-05-02T12:38:43.076Z,18.20
2017-05-02T12:41:11.441Z,17.64
2017-05-02T12:43:39.745Z,12.02
2017-05-02T12:46:08.825Z,14.10
2017-05-02T12:48:37.166Z,13.10
2017-05-02T12:51:05.501Z,14.80
2017-05-02T12:53:34.597Z,14.48
2017-05-02T12:56:03.878Z,13.82
2017-05-02T12:58:32.958Z,11.88
2017-05-02T13:01:01.267Z,14.72
2017-05-02T13:03:30.383Z,12.22
2017-05-02T13:05:58.695Z,16.90
2017-05-02T13:08:27.001Z,14.48
2017-05-02T13:10:55.376Z,15.70
2017-05-02T13:13:23.690Z,17.80
2017-05-02T13:15:52.009Z,18.78
2017-05-02T13:18:20.370Z,17.16
2017-05-02T13:20:48.705Z,16.68
2017-05-02T13:23:17.787Z,23.34
2017-05-02T13:25:46.132Z,19.68
2017-05-02T13:28:14.459Z,16.78
2017-05-02T13:30:43.533Z,18.96
2017-05-02T13:33:11.886Z,16.62
2017-05-02T13:35:40.204Z,25.04
2017-05-02T13:38:08.513Z,21.70
2017-05-02T13:40:36.866Z,24.70
2017-05-02T13:43:05.941Z,24.60
2017-05-02T13:45:34.251Z,26.16
2017-05-02T13:48:02.598Z,20.44
2017-05-02T13:50:30.905Z,21.64
2017-05-02T13:52:59.986Z,25.18
2017-05-02T13:55:29.112Z,20.74
2017-05-02T13:57:57.705Z,24.06
2017-05-02T14:00:26.009Z,27.26
2017-05-02T14:02:54.369Z,27.50
2017-05-02T14:05:22.692Z,29.14
2017-05-02T14:07:51.015Z,26.14
2017-05-02T14:10:19.373Z,21.04
2017-05-02T14:12:48.457Z,28.98
2017-05-02T14:15:17.580Z,26.18
2017-05-02T14:17:45.893Z,26.48
2017-05-02T14:20:14.212Z,29.30
2017-05-02T14:22:42.562Z,25.72
2017-05-02T14:25:10.878Z,17.34
2017-05-02T14:27:39.201Z,9.74
2017-05-02T14:30:08.318Z,9.14
2017-05-02T14:32:36.625Z,8.30
2017-05-02T14:35:04.936Z,9.62
2017-05-02T14:37:34.043Z,11.26
2017-05-02T14:40:03.117Z,10.74
2017-05-02T14:42:31.428Z,14.06
2017-05-02T14:44:59.774Z,13.28
2017-05-02T14:47:28.085Z,12.34
2017-05-02T14:49:57.150Z,9.14
2017-05-02T14:52:26.260Z,9.94
2017-05-02T14:54:55.337Z,11.76
2017-05-02T14:57:24.477Z,12.68
2017-05-02T14:59:52.793Z,10.68
2017-05-02T15:02:21.114Z,13.52
2017-05-02T15:04:50.959Z,14.42
2017-05-02T15:07:19.293Z,14.60
2017-05-02T15:09:48.408Z,10.82
2017-05-02T15:12:16.721Z,13.16
2017-05-02T15:14:45.034Z,12.80
2017-05-02T15:17:14.194Z,13.56
2017-05-02T15:19:42.510Z,13.70
2017-05-02T15:22:12.389Z,9.96
2017-05-02T15:24:40.698Z,11.32
2017-05-02T15:27:09.023Z,11.14
2017-05-02T15:29:37.419Z,12.06
2017-05-02T15:32:05.718Z,11.28
2017-05-02T15:34:34.021Z,10.90
2017-05-02T15:37:03.243Z,13.12
2017-05-02T15:39:32.318Z,14.66
2017-05-02T15:42:01.425Z,9.20
2017-05-02T15:44:30.496Z,8.70
2017-05-02T15:46:58.794Z,5.58
2017-05-02T15:49:27.143Z,6.00
2017-05-02T15:51:56.219Z,4.68
2017-05-02T15:54:25.331Z,4.92
2017-05-02T15:56:54.414Z,4.50
2017-05-02T15:59:22.710Z,4.28
2017-05-02T16:01:51.809Z,4.94
2017-05-02T16:04:20.109Z,4.56
2017-05-02T16:06:48.403Z,4.56
2017-05-02T16:09:16.783Z,5.02
2017-05-02T16:11:45.076Z,4.88
2017-05-02T16:14:13.382Z,4.34
2017-05-02T16:16:42.483Z,4.08
2017-05-02T16:19:11.546Z,5.00
2017-05-02T16:21:39.871Z,6.32
2017-05-02T16:24:08.210Z,6.22
2017-05-02T16:26:37.289Z,6.58
2017-05-02T16:29:05.601Z,5.80
2017-05-02T16:31:34.715Z,6.00
2017-05-02T16:34:03.011Z,5.24
2017-05-02T16:36:31.322Z,5.90
2017-05-02T16:38:59.694Z,5.14
2017-05-02T16:41:28.014Z,5.36
2017-05-02T16:43:57.328Z,4.30
2017-05-02T16:46:25.661Z,5.38
2017-05-02T16:48:54.838Z,4.82
2017-05-02T16:51:23.130Z,4.34
2017-05-02T16:53:51.463Z,4.10
2017-05-02T16:56:19.788Z,2.06
2017-05-02T16:58:48.080Z,4.42
2017-05-02T17:01:16.373Z,1.60
2017-05-02T17:03:45.470Z,1.78
2017-05-02T17:06:14.533Z,2.62
2017-05-02T17:08:44.386Z,1.22
2017-05-02T17:11:12.688Z,1.26
2017-05-02T17:13:40.979Z,1.02
2017-05-02T17:16:10.349Z,2.46
2017-05-02T17:18:38.648Z,1.50
2017-05-02T17:21:06.950Z,1.74
2017-05-02T17:23:35.290Z,1.56
2017-05-02T17:26:03.591Z,1.34
2017-05-02T17:28:31.899Z,1.50
2017-05-02T17:31:00.259Z,1.70
2017-05-02T17:33:29.327Z,3.74
2017-05-02T17:35:57.633Z,1.78
2017-05-02T17:38:25.968Z,2.02
2017-05-02T17:40:55.037Z,1.70
2017-05-02T17:43:24.138Z,1.50
2017-05-02T17:45:53.211Z,1.76
2017-05-02T17:48:21.568Z,3.10
2017-05-02T17:50:49.880Z,3.60
2017-05-02T17:53:18.939Z,2.54
2017-05-02T17:55:47.264Z,1.74
2017-05-02T17:58:16.325Z,2.96
2017-05-02T18:00:44.667Z,1.88
2017-05-02T18:03:13.002Z,2.36
2017-05-02T18:05:42.085Z,2.14
2017-05-02T18:08:11.208Z,2.12
2017-05-02T18:10:41.060Z,3.42
2017-05-02T18:13:10.230Z,2.00
2017-05-02T18:15:38.563Z,3.96
2017-05-02T18:18:06.958Z,2.46
2017-05-02T18:20:35.608Z,2.62
2017-05-02T18:23:04.164Z,1.90
2017-05-02T18:25:32.913Z,2.74
2017-05-02T18:28:02.107Z,3.34
2017-05-02T18:30:30.410Z,1.90
2017-05-02T18:32:58.716Z,1.84
2017-05-02T18:35:27.104Z,1.74
2017-05-02T18:37:55.447Z,2.52
2017-05-02T18:40:23.786Z,2.40
2017-05-02T18:42:52.118Z,2.62
2017-05-02T18:45:20.417Z,2.02
2017-05-02T18:47:48.720Z,2.34
2017-05-02T18:50:17.057Z,3.30
2017-05-02T18:52:45.346Z,3.38
2017-05-02T18:55:14.436Z,2.30
2017-05-02T18:57:42.770Z,3.66
2017-05-02T19:00:11.071Z,1.82
2017-05-02T19:02:39.366Z,2.20
2017-05-02T19:05:07.692Z,1.80
2017-05-02T19:07:35.985Z,2.90
2017-05-02T19:10:04.333Z,3.62
2017-05-02T19:12:32.637Z,2.12
2017-05-02T19:15:00.955Z,2.88
2017-05-02T19:17:29.322Z,2.80
2017-05-02T19:19:57.618Z,2.40
2017-05-02T19:22:26.682Z,2.62
2017-05-02T19:24:55.146Z,2.18
2017-05-02T19:27:23.429Z,3.44
2017-05-02T19:29:51.722Z,8.04
2017-05-02T19:32:20.056Z,5.32
2017-05-02T19:34:48.351Z,3.02
2017-05-02T19:37:16.645Z,2.32
2017-05-02T19:39:44.984Z,2.04
2017-05-02T19:42:13.275Z,3.26
2017-05-02T19:44:42.337Z,2.94
2017-05-02T19:47:11.463Z,3.34
2017-05-02T19:49:39.770Z,2.22
2017-05-02T19:52:08.839Z,2.48
2017-05-02T19:54:37.943Z,3.76
2017-05-02T19:57:06.254Z,4.04
2017-05-02T19:59:34.560Z,2.24
2017-05-02T20:02:03.675Z,3.68
2017-05-02T20:04:32.763Z,6.22
2017-05-02T20:07:01.871Z,3.64
2017-05-02T20:09:30.169Z,17.14
2017-05-02T20:11:58.471Z,2.72
2017-05-02T20:14:27.634Z,3.34
2017-05-02T20:16:56.047Z,3.98
2017-05-02T20:19:24.342Z,2.48
2017-05-02T20:21:53.449Z,3.92
2017-05-02T20:24:22.509Z,5.12
2017-05-02T20:26:50.806Z,4.26
2017-05-02T20:29:19.903Z,3.74
2017-05-02T20:31:48.199Z,5.60
2017-05-02T20:34:16.502Z,6.54
2017-05-02T20:36:44.873Z,4.84
2017-05-02T20:39:13.182Z,4.48
2017-05-02T20:41:42.243Z,4.36
2017-05-02T20:44:10.589Z,5.60
2017-05-02T20:46:38.885Z,4.58
2017-05-02T20:49:07.191Z,5.72
2017-05-02T20:51:35.550Z,5.70
2017-05-02T20:54:03.847Z,7.62
2017-05-02T20:56:32.166Z,7.04
2017-05-02T20:59:01.289Z,8.84
2017-05-02T21:01:29.589Z,6.90
2017-05-02T21:03:57.895Z,7.02
2017-05-02T21:06:26.242Z,7.66
2017-05-02T21:08:54.717Z,7.60
2017-05-02T21:11:23.022Z,9.14
2017-05-02T21:13:52.878Z,7.40
2017-05-02T21:16:21.177Z,8.56
2017-05-02T21:18:49.498Z,6.00
2017-05-02T21:21:18.666Z,7.80
2017-05-02T21:23:46.961Z,6.58
2017-05-02T21:26:15.257Z,7.78
2017-05-02T21:28:44.365Z,6.96
2017-05-02T21:31:13.428Z,9.50
2017-05-02T21:33:41.726Z,8.06
2017-05-02T21:36:10.825Z,7.58
2017-05-02T21:38:39.953Z,10.16
2017-05-02T21:41:08.250Z,5.84
2017-05-02T21:43:36.581Z,6.40
2017-05-02T21:46:04.877Z,9.68
2017-05-02T21:48:33.945Z,8.64
2017-05-02T21:51:03.045Z,6.84
2017-05-02T21:53:31.355Z,7.66
2017-05-02T21:55:59.650Z,9.12
2017-05-02T21:58:28.005Z,8.78
2017-05-02T22:00:56.335Z,6.88
2017-05-02T22:03:24.629Z,10.46
2017-05-02T22:05:53.749Z,6.74
2017-05-02T22:08:22.062Z,6.94
2017-05-02T22:10:51.144Z,9.62
2017-05-02T22:13:20.288Z,7.68
2017-05-02T22:15:49.383Z,10.44
2017-05-02T22:18:17.683Z,11.14
2017-05-02T22:20:46.024Z,8.24
2017-05-02T22:23:15.082Z,9.76
2017-05-02T22:25:43.373Z,7.84
2017-05-02T22:28:11.727Z,8.16
2017-05-02T22:30:40.795Z,10.60
2017-05-02T22:33:09.920Z,7.92
2017-05-02T22:35:38.221Z,7.38
2017-05-02T22:38:06.515Z,6.10
2017-05-02T22:40:34.887Z,8.16
2017-05-02T22:43:03.177Z,7.86
2017-05-02T22:45:31.472Z,7.04
2017-05-02T22:48:00.590Z,7.36
2017-05-02T22:50:28.882Z,6.98
2017-05-02T22:52:57.439Z,7.04
2017-05-02T22:55:26.545Z,6.40
2017-05-02T22:57:54.852Z,7.18
2017-05-02T23:00:23.144Z,5.98
2017-05-02T23:02:51.510Z,8.88
2017-05-02T23:05:19.848Z,7.90
2017-05-02T23:07:48.904Z,9.72
2017-05-02T23:10:17.200Z,8.60
2017-05-02T23:12:46.306Z,8.08
2017-05-02T23:15:15.381Z,9.44
2017-05-02T23:17:43.689Z,10.90
2017-05-02T23:20:12.787Z,8.50
2017-05-02T23:22:41.082Z,9.16
2017-05-02T23:25:09.377Z,6.66
2017-05-02T23:27:37.739Z,5.98
2017-05-02T23:30:06.031Z,6.08
2017-05-02T23:32:34.335Z,8.46
2017-05-02T23:35:02.678Z,6.72
2017-05-02T23:37:30.982Z,7.54
2017-05-02T23:39:59.281Z,7.46
2017-05-02T23:42:27.620Z,7.92
2017-05-02T23:44:55.941Z,12.64
2017-05-02T23:47:25.012Z,12.32
2017-05-02T23:49:53.359Z,12.22
2017-05-02T23:52:21.654Z,11.30
2017-05-02T23:54:50.738Z,11.46
2017-05-02T23:57:19.069Z,9.62
2017-05-02T23:59:48.142Z,10.16
